createdAt,value
2019-01-29T00:01:56.667Z,29.27
2019-01-29T00:04:25.763Z,27.20
2019-01-29T00:06:54.883Z,24.73
2019-01-29T00:09:24.070Z,27.90
2019-01-29T00:11:53.195Z,24.13
2019-01-29T00:14:22.300Z,26.03
2019-01-29T00:16:51.407Z,27.50
2019-01-29T00:19:20.506Z,28.50
2019-01-29T00:21:49.610Z,27.67
2019-01-29T00:24:18.719Z,23.43
2019-01-29T00:26:47.822Z,20.50
2019-01-29T00:29:16.918Z,19.10
2019-01-29T00:31:46.034Z,26.17
2019-01-29T00:34:15.127Z,21.37
2019-01-29T00:36:44.308Z,27.80
2019-01-29T00:39:13.395Z,25.80
2019-01-29T00:41:42.515Z,24.07
2019-01-29T00:44:11.619Z,22.07
2019-01-29T00:46:40.730Z,22.83
2019-01-29T00:49:09.831Z,28.43
2019-01-29T00:51:38.938Z,33.17
2019-01-29T00:54:08.038Z,31.83
2019-01-29T00:56:37.145Z,26.83
2019-01-29T00:59:06.244Z,20.90
2019-01-29T01:01:35.355Z,23.47
2019-01-29T01:04:04.526Z,21.77
2019-01-29T01:06:34.623Z,22.43
2019-01-29T01:09:05.424Z,24.20
2019-01-29T01:11:34.519Z,29.27
2019-01-29T01:14:04.602Z,23.37
2019-01-29T01:16:33.706Z,22.93
2019-01-29T01:19:02.814Z,18.60
2019-01-29T01:21:31.916Z,26.63
2019-01-29T01:24:01.037Z,22.17
2019-01-29T01:26:30.129Z,19.63
2019-01-29T01:28:59.237Z,26.90
2019-01-29T01:31:28.339Z,19.13
2019-01-29T01:33:57.452Z,24.07
2019-01-29T01:36:26.547Z,19.30
2019-01-29T01:38:55.663Z,20.63
2019-01-29T01:41:24.865Z,28.27
2019-01-29T01:43:53.978Z,19.67
2019-01-29T01:46:23.077Z,21.57
2019-01-29T01:48:52.186Z,22.27
2019-01-29T01:51:21.282Z,24.47
2019-01-29T01:53:50.395Z,21.93
2019-01-29T01:56:19.498Z,23.40
2019-01-29T01:58:48.628Z,23.73
2019-01-29T02:01:17.714Z,22.10
2019-01-29T02:03:47.039Z,30.27
2019-01-29T02:06:17.869Z,21.37
2019-01-29T02:08:47.001Z,23.40
2019-01-29T02:11:16.192Z,19.80
2019-01-29T02:13:45.417Z,23.00
2019-01-29T02:16:14.570Z,23.80
2019-01-29T02:18:43.679Z,23.07
2019-01-29T02:21:12.774Z,28.70
2019-01-29T02:23:41.883Z,24.70
2019-01-29T02:26:10.977Z,22.97
2019-01-29T02:28:40.094Z,21.60
2019-01-29T02:31:09.270Z,31.10
2019-01-29T02:33:38.595Z,31.23
2019-01-29T02:36:07.697Z,22.73
2019-01-29T02:38:36.799Z,25.03
2019-01-29T02:41:05.908Z,29.20
2019-01-29T02:43:35.150Z,22.93
2019-01-29T02:46:04.311Z,24.67
2019-01-29T02:48:33.413Z,30.63
2019-01-29T02:51:02.662Z,27.97
2019-01-29T02:53:31.807Z,22.80
2019-01-29T02:56:00.957Z,22.83
2019-01-29T02:58:30.053Z,20.83
2019-01-29T03:00:59.166Z,19.53
2019-01-29T03:03:28.266Z,28.30
2019-01-29T03:05:57.378Z,25.00
2019-01-29T03:08:26.494Z,24.07
2019-01-29T03:10:55.602Z,20.17
2019-01-29T03:13:24.717Z,25.33
2019-01-29T03:15:53.827Z,24.50
2019-01-29T03:18:22.931Z,20.03
2019-01-29T03:20:52.032Z,17.83
2019-01-29T03:23:27.276Z,21.23
2019-01-29T03:25:51.939Z,19.43
2019-01-29T03:28:21.037Z,20.43
2019-01-29T03:30:50.160Z,21.83
2019-01-29T03:33:19.377Z,19.80
2019-01-29T03:35:48.545Z,20.27
2019-01-29T03:38:17.911Z,20.20
2019-01-29T03:40:47.051Z,21.27
2019-01-29T03:43:16.172Z,19.33
2019-01-29T03:45:45.313Z,23.07
2019-01-29T03:48:14.438Z,19.23
2019-01-29T03:50:43.533Z,17.70
2019-01-29T03:53:12.633Z,21.87
2019-01-29T03:55:41.743Z,18.67
2019-01-29T03:58:10.838Z,17.27
2019-01-29T04:00:39.943Z,20.97
2019-01-29T04:03:09.103Z,20.03
2019-01-29T04:05:38.227Z,15.70
2019-01-29T04:08:07.323Z,19.73
2019-01-29T04:10:36.443Z,21.90
2019-01-29T04:13:05.542Z,21.97
2019-01-29T04:15:34.664Z,20.33
2019-01-29T04:18:03.774Z,22.97
2019-01-29T04:20:32.882Z,22.30
2019-01-29T04:23:01.999Z,20.27
2019-01-29T04:25:31.087Z,15.63
2019-01-29T04:28:00.200Z,17.73
2019-01-29T04:30:29.311Z,23.37
2019-01-29T04:32:58.422Z,17.47
2019-01-29T04:35:27.544Z,21.63
2019-01-29T04:37:56.637Z,23.53
2019-01-29T04:40:25.742Z,21.27
2019-01-29T04:42:54.855Z,25.00
2019-01-29T04:45:23.959Z,25.87
2019-01-29T04:47:53.193Z,20.80
2019-01-29T04:50:22.290Z,21.60
2019-01-29T04:52:51.399Z,23.47
2019-01-29T04:55:20.502Z,23.77
2019-01-29T04:57:49.639Z,22.80
2019-01-29T05:00:20.874Z,20.17
2019-01-29T05:02:49.987Z,24.83
2019-01-29T05:05:19.449Z,21.53
2019-01-29T05:07:48.614Z,25.27
2019-01-29T05:10:19.047Z,23.97
2019-01-29T05:12:48.174Z,17.57
2019-01-29T05:15:20.202Z,21.83
2019-01-29T05:17:49.313Z,17.37
2019-01-29T05:20:20.926Z,22.33
2019-01-29T05:22:50.031Z,14.20
2019-01-29T05:25:19.127Z,14.90
2019-01-29T05:27:48.241Z,17.80
2019-01-29T05:30:22.339Z,15.87
2019-01-29T05:32:51.442Z,21.03
2019-01-29T05:35:20.541Z,18.63
2019-01-29T05:37:49.648Z,18.63
2019-01-29T05:40:21.443Z,17.83
2019-01-29T05:42:50.646Z,18.47
2019-01-29T05:45:20.987Z,20.03
2019-01-29T05:47:50.086Z,14.87
2019-01-29T05:50:19.183Z,21.87
2019-01-29T05:52:48.289Z,13.87
2019-01-29T05:55:17.382Z,16.33
2019-01-29T05:57:46.562Z,14.60
2019-01-29T06:00:18.675Z,18.27
2019-01-29T06:02:48.689Z,20.47
2019-01-29T06:05:17.965Z,20.13
2019-01-29T06:07:47.078Z,17.73
2019-01-29T06:10:17.115Z,17.40
2019-01-29T06:12:46.228Z,17.40
2019-01-29T06:15:23.591Z,14.97
2019-01-29T06:17:52.702Z,15.43
2019-01-29T06:20:24.607Z,17.67
2019-01-29T06:22:53.703Z,26.20
2019-01-29T06:25:22.884Z,13.10
2019-01-29T06:27:52.098Z,15.70
2019-01-29T06:30:23.767Z,17.27
2019-01-29T06:32:54.491Z,15.07
2019-01-29T06:35:25.219Z,15.70
2019-01-29T06:37:54.324Z,14.30
2019-01-29T06:40:27.349Z,17.97
2019-01-29T06:42:56.487Z,16.37
2019-01-29T06:45:26.550Z,14.30
2019-01-29T06:47:55.668Z,20.90
2019-01-29T06:50:26.402Z,17.97
2019-01-29T06:52:55.782Z,16.97
2019-01-29T06:55:25.513Z,18.27
2019-01-29T06:57:56.013Z,21.90
2019-01-29T07:00:30.678Z,16.80
2019-01-29T07:03:00.620Z,20.70
2019-01-29T07:05:29.712Z,17.33
2019-01-29T07:07:58.835Z,22.77
2019-01-29T07:10:28.068Z,16.90
2019-01-29T07:12:57.179Z,21.83
2019-01-29T07:15:47.727Z,16.87
2019-01-29T07:18:27.176Z,24.10
2019-01-29T07:20:56.271Z,21.90
2019-01-29T07:23:25.384Z,23.37
2019-01-29T07:25:54.489Z,18.07
2019-01-29T07:28:23.615Z,18.30
2019-01-29T07:30:52.715Z,22.30
2019-01-29T07:33:21.815Z,27.23
2019-01-29T07:35:50.951Z,29.43
2019-01-29T07:38:20.059Z,24.63
2019-01-29T07:40:49.172Z,28.20
2019-01-29T07:43:18.270Z,31.93
2019-01-29T07:45:47.373Z,28.37
2019-01-29T07:48:16.475Z,27.03
2019-01-29T07:50:45.589Z,33.47
2019-01-29T07:53:14.699Z,33.80
2019-01-29T07:55:43.790Z,30.10
2019-01-29T07:58:13.939Z,42.20
2019-01-29T08:00:43.042Z,39.53
2019-01-29T08:03:12.149Z,36.70
2019-01-29T08:05:41.251Z,33.50
2019-01-29T08:08:10.351Z,29.37
2019-01-29T08:10:39.469Z,28.73
2019-01-29T08:13:08.571Z,36.80
2019-01-29T08:15:37.695Z,49.60
2019-01-29T08:18:06.863Z,35.73
2019-01-29T08:20:35.977Z,28.03
2019-01-29T08:23:05.068Z,35.53
2019-01-29T08:25:34.185Z,35.23
2019-01-29T08:28:03.354Z,30.87
2019-01-29T08:30:32.467Z,34.67
2019-01-29T08:33:01.579Z,34.40
2019-01-29T08:35:30.699Z,31.20
2019-01-29T08:37:59.802Z,33.83
2019-01-29T08:40:28.915Z,30.47
2019-01-29T08:42:58.014Z,37.33
2019-01-29T08:45:27.181Z,36.97
2019-01-29T08:47:56.295Z,35.70
2019-01-29T08:50:26.447Z,26.43
2019-01-29T08:52:55.547Z,36.23
2019-01-29T08:55:24.657Z,32.80
2019-01-29T08:57:53.759Z,33.97
2019-01-29T09:00:23.239Z,30.70
2019-01-29T09:02:52.354Z,31.73
2019-01-29T09:05:21.471Z,31.40
2019-01-29T09:07:50.600Z,32.60
2019-01-29T09:10:20.751Z,34.00
2019-01-29T09:12:49.873Z,29.67
2019-01-29T09:15:20.483Z,31.10
2019-01-29T09:17:49.583Z,30.40
2019-01-29T09:20:20.226Z,35.47
2019-01-29T09:22:49.331Z,29.53
2019-01-29T09:25:22.566Z,34.87
2019-01-29T09:27:50.830Z,26.53
2019-01-29T09:30:20.470Z,36.17
2019-01-29T09:32:49.579Z,34.20
2019-01-29T09:35:18.683Z,39.77
2019-01-29T09:37:47.795Z,34.43
2019-01-29T09:40:20.153Z,33.33
2019-01-29T09:42:49.279Z,30.87
2019-01-29T09:45:19.546Z,37.83
2019-01-29T09:47:48.699Z,34.77
2019-01-29T09:50:23.898Z,36.67
2019-01-29T09:52:53.204Z,37.93
2019-01-29T09:55:28.886Z,40.57
2019-01-29T09:57:54.144Z,34.37
2019-01-29T10:00:33.845Z,34.73
2019-01-29T10:03:02.959Z,36.93
2019-01-29T10:05:33.035Z,41.13
2019-01-29T10:08:02.255Z,41.23
2019-01-29T10:10:31.350Z,42.67
2019-01-29T10:13:00.458Z,41.40
2019-01-29T10:15:34.566Z,35.30
2019-01-29T10:18:04.248Z,35.80
2019-01-29T10:20:33.347Z,29.80
2019-01-29T10:23:02.589Z,34.07
2019-01-29T10:25:37.518Z,31.90
2019-01-29T10:28:02.606Z,34.03
2019-01-29T10:30:31.702Z,32.60
2019-01-29T10:33:00.843Z,34.90
2019-01-29T10:35:29.951Z,32.40
2019-01-29T10:37:59.058Z,34.60
2019-01-29T10:40:28.270Z,33.80
2019-01-29T10:42:57.932Z,36.97
2019-01-29T10:45:28.870Z,36.53
2019-01-29T10:47:58.003Z,31.90
2019-01-29T10:50:29.601Z,31.30
2019-01-29T10:52:59.083Z,34.97
2019-01-29T10:55:28.187Z,42.30
2019-01-29T10:57:57.468Z,32.70
2019-01-29T11:00:29.323Z,31.20
2019-01-29T11:02:58.428Z,34.60
2019-01-29T11:05:27.527Z,34.50
2019-01-29T11:07:56.638Z,33.23
2019-01-29T11:10:25.734Z,44.97
2019-01-29T11:12:54.847Z,38.30
2019-01-29T11:15:26.947Z,37.83
2019-01-29T11:17:56.124Z,33.70
2019-01-29T11:20:25.218Z,37.10
2019-01-29T11:22:54.573Z,37.40
2019-01-29T11:25:28.748Z,42.37
2019-01-29T11:27:57.861Z,45.43
2019-01-29T11:30:28.799Z,41.20
2019-01-29T11:32:57.911Z,42.90
2019-01-29T11:35:27.013Z,39.03
2019-01-29T11:37:56.198Z,42.00
2019-01-29T11:40:27.429Z,47.40
2019-01-29T11:42:57.720Z,49.00
2019-01-29T11:45:35.412Z,47.97
2019-01-29T11:48:04.527Z,55.10
2019-01-29T11:50:33.626Z,61.53
2019-01-29T11:53:02.758Z,51.20
2019-01-29T11:55:31.855Z,51.57
2019-01-29T11:58:00.983Z,52.90
2019-01-29T12:00:39.719Z,53.37
2019-01-29T12:03:08.830Z,56.00
2019-01-29T12:05:37.923Z,48.47
2019-01-29T12:08:07.994Z,50.87
2019-01-29T12:10:37.210Z,50.07
2019-01-29T12:13:06.325Z,53.87
2019-01-29T12:15:35.427Z,54.20
2019-01-29T12:18:05.167Z,62.83
2019-01-29T12:20:34.281Z,50.43
2019-01-29T12:23:03.390Z,52.97
2019-01-29T12:25:32.531Z,57.93
2019-01-29T12:28:01.635Z,50.47
2019-01-29T12:30:30.742Z,60.33
2019-01-29T12:33:01.688Z,47.67
2019-01-29T12:35:31.770Z,46.87
2019-01-29T12:38:00.863Z,52.63
2019-01-29T12:40:30.958Z,50.00
2019-01-29T12:43:00.047Z,54.83
2019-01-29T12:45:29.154Z,43.90
2019-01-29T12:47:58.262Z,40.77
2019-01-29T12:50:29.888Z,44.03
2019-01-29T12:53:00.634Z,39.60
2019-01-29T12:55:29.734Z,41.33
2019-01-29T12:57:58.838Z,37.97
2019-01-29T13:00:29.658Z,35.37
2019-01-29T13:02:58.756Z,39.97
2019-01-29T13:05:27.871Z,40.83
2019-01-29T13:07:56.970Z,39.57
2019-01-29T13:10:26.454Z,32.00
2019-01-29T13:12:55.550Z,37.17
2019-01-29T13:15:28.164Z,41.77
2019-01-29T13:17:58.902Z,45.13
2019-01-29T13:20:28.027Z,38.53
2019-01-29T13:22:57.127Z,37.17
2019-01-29T13:25:26.242Z,41.37
2019-01-29T13:27:55.338Z,47.70
2019-01-29T13:30:34.939Z,37.03
2019-01-29T13:33:06.656Z,36.73
2019-01-29T13:35:36.695Z,42.37
2019-01-29T13:38:06.749Z,43.93
2019-01-29T13:40:35.923Z,43.47
2019-01-29T13:43:05.659Z,36.30
2019-01-29T13:45:34.776Z,37.47
2019-01-29T13:48:04.243Z,36.87
2019-01-29T13:50:38.604Z,35.33
2019-01-29T13:53:08.774Z,37.03
2019-01-29T13:55:37.894Z,38.70
2019-01-29T13:58:08.126Z,45.43
2019-01-29T14:00:40.667Z,41.83
2019-01-29T14:03:11.975Z,38.07
2019-01-29T14:05:41.076Z,44.97
2019-01-29T14:08:10.180Z,46.07
2019-01-29T14:10:39.282Z,41.23
2019-01-29T14:13:08.383Z,40.97
2019-01-29T14:15:39.136Z,42.47
2019-01-29T14:18:08.508Z,41.57
2019-01-29T14:20:37.611Z,39.90
2019-01-29T14:23:08.047Z,37.70
2019-01-29T14:25:37.150Z,35.13
2019-01-29T14:28:06.319Z,44.90
2019-01-29T14:30:36.495Z,36.30
2019-01-29T14:33:06.544Z,33.43
2019-01-29T14:35:35.659Z,31.43
2019-01-29T14:38:16.743Z,31.93
2019-01-29T14:40:45.851Z,32.43
2019-01-29T14:43:18.289Z,32.57
2019-01-29T14:45:47.400Z,34.30
2019-01-29T14:48:16.495Z,29.90
2019-01-29T14:50:45.627Z,30.57
2019-01-29T14:53:14.734Z,34.13
2019-01-29T14:55:43.848Z,38.17
2019-01-29T14:58:12.947Z,32.43
2019-01-29T15:00:42.058Z,28.97
2019-01-29T15:03:11.409Z,28.23
2019-01-29T15:05:40.753Z,31.63
2019-01-29T15:08:09.932Z,47.27
2019-01-29T15:10:39.127Z,80.07
2019-01-29T15:13:08.293Z,73.43
2019-01-29T15:15:39.523Z,35.23
2019-01-29T15:18:28.539Z,37.43
2019-01-29T15:20:57.659Z,35.20
2019-01-29T15:23:26.755Z,40.03
2019-01-29T15:25:55.876Z,29.07
2019-01-29T15:28:25.056Z,56.87
2019-01-29T15:30:54.160Z,30.70
2019-01-29T15:33:23.259Z,30.80
2019-01-29T15:35:52.372Z,30.90
2019-01-29T15:38:21.572Z,27.73
2019-01-29T15:40:50.758Z,33.87
2019-01-29T15:43:19.918Z,28.23
2019-01-29T15:45:50.729Z,30.10
2019-01-29T15:48:22.639Z,31.93
2019-01-29T15:50:51.747Z,33.10
2019-01-29T15:53:20.881Z,38.97
2019-01-29T15:55:49.979Z,31.27
2019-01-29T15:58:19.097Z,28.23
2019-01-29T16:00:48.204Z,32.97
2019-01-29T16:03:17.318Z,31.23
2019-01-29T16:05:46.420Z,27.20
2019-01-29T16:08:15.530Z,29.20
2019-01-29T16:10:46.070Z,30.97
2019-01-29T16:13:15.191Z,31.77
2019-01-29T16:15:44.303Z,27.57
2019-01-29T16:18:13.997Z,29.70
2019-01-29T16:20:43.103Z,32.50
2019-01-29T16:23:12.213Z,35.17
2019-01-29T16:25:41.316Z,26.20
2019-01-29T16:28:10.423Z,28.50
2019-01-29T16:30:39.695Z,27.57
2019-01-29T16:33:08.821Z,29.73
2019-01-29T16:35:43.208Z,31.47
2019-01-29T16:38:12.382Z,36.37
2019-01-29T16:40:43.418Z,32.30
2019-01-29T16:43:12.547Z,28.27
2019-01-29T16:45:41.651Z,33.77
2019-01-29T16:48:11.159Z,34.80
2019-01-29T16:50:40.257Z,32.30
2019-01-29T16:53:09.641Z,31.27
2019-01-29T16:55:38.743Z,33.43
2019-01-29T16:58:07.852Z,33.47
2019-01-29T17:00:39.294Z,31.40
2019-01-29T17:03:08.475Z,38.40
2019-01-29T17:05:37.583Z,31.30
2019-01-29T17:08:06.709Z,30.37
2019-01-29T17:10:35.825Z,29.60
2019-01-29T17:13:05.465Z,29.17
2019-01-29T17:15:38.240Z,31.07
2019-01-29T17:18:08.182Z,31.97
2019-01-29T17:20:44.650Z,28.93
2019-01-29T17:23:13.770Z,27.57
2019-01-29T17:25:42.875Z,26.40
2019-01-29T17:28:11.978Z,25.67
2019-01-29T17:30:44.944Z,25.33
2019-01-29T17:33:16.392Z,24.70
2019-01-29T17:35:45.715Z,24.57
2019-01-29T17:38:14.883Z,29.23
2019-01-29T17:56:24.263Z,22.93
2019-01-29T17:58:53.384Z,22.47
2019-01-29T18:01:22.523Z,23.90
2019-01-29T18:03:51.651Z,27.67
2019-01-29T18:06:24.102Z,24.07
2019-01-29T18:08:53.273Z,24.43
2019-01-29T18:11:22.403Z,25.37
2019-01-29T18:13:51.534Z,27.00
2019-01-29T18:16:20.632Z,27.20
2019-01-29T18:18:49.748Z,24.47
2019-01-29T18:21:19.034Z,26.63
2019-01-29T18:23:48.257Z,28.77
2019-01-29T18:26:17.387Z,22.97
2019-01-29T18:28:46.547Z,26.77
2019-01-29T18:31:16.475Z,24.60
2019-01-29T18:33:45.599Z,24.73
2019-01-29T18:36:14.710Z,28.73
2019-01-29T18:38:43.882Z,24.47
2019-01-29T18:41:12.983Z,22.33
2019-01-29T18:43:42.168Z,22.37
2019-01-29T18:46:12.472Z,27.00
2019-01-29T18:48:41.597Z,26.77
2019-01-29T18:51:10.708Z,23.20
2019-01-29T18:53:39.976Z,25.30
2019-01-29T18:56:09.122Z,24.87
2019-01-29T18:58:45.409Z,28.10
2019-01-29T19:01:14.530Z,26.40
2019-01-29T19:03:43.648Z,28.33
2019-01-29T19:06:12.749Z,31.20
2019-01-29T19:08:43.277Z,27.50
2019-01-29T19:11:13.593Z,29.97
2019-01-29T19:13:42.692Z,26.77
2019-01-29T19:16:11.911Z,37.30
2019-01-29T19:18:42.922Z,35.53
2019-01-29T19:21:12.034Z,44.47
2019-01-29T19:23:41.161Z,43.07
2019-01-29T19:26:10.315Z,32.17
2019-01-29T19:28:39.449Z,29.90
2019-01-29T20:38:36.717Z,20.83
2019-01-29T20:41:05.895Z,23.30
2019-01-29T20:43:35.094Z,24.57
2019-01-29T20:46:04.223Z,21.80
2019-01-29T20:48:33.323Z,23.27
2019-01-29T20:51:02.431Z,22.43
2019-01-29T20:53:31.536Z,21.73
2019-01-29T20:56:02.270Z,20.97
2019-01-29T20:58:31.376Z,20.37
2019-01-29T21:01:00.495Z,20.13
2019-01-29T21:03:29.595Z,20.90
2019-01-29T21:06:00.355Z,20.17
2019-01-29T21:08:29.475Z,23.13
2019-01-29T21:11:00.220Z,21.33
2019-01-29T21:13:29.322Z,23.27
2019-01-29T21:15:58.452Z,19.70
2019-01-29T21:18:27.587Z,20.43
2019-01-29T21:20:57.389Z,23.73
2019-01-29T21:23:26.796Z,19.83
2019-01-29T21:25:55.932Z,26.07
2019-01-29T21:28:25.111Z,24.23
2019-01-29T21:30:54.207Z,19.10
2019-01-29T21:33:23.331Z,19.57
2019-01-29T21:35:52.452Z,23.67
2019-01-29T21:38:21.587Z,19.47
2019-01-29T21:40:50.722Z,22.07
2019-01-29T21:43:19.827Z,18.63
2019-01-29T21:45:48.928Z,20.07
2019-01-29T21:48:18.148Z,21.33
2019-01-29T21:50:47.263Z,19.93
2019-01-29T21:53:16.384Z,18.80
2019-01-29T21:55:45.498Z,21.03
2019-01-29T21:58:14.605Z,22.97
2019-01-29T22:00:43.703Z,27.37
2019-01-29T22:03:12.827Z,18.43
2019-01-29T22:39:07.324Z,27.10
2019-01-29T22:41:36.503Z,27.63
2019-01-29T22:44:05.623Z,32.97
2019-01-29T22:46:34.727Z,26.97
2019-01-29T22:49:03.851Z,32.43
2019-01-29T22:51:32.970Z,36.37
2019-01-29T22:54:02.100Z,27.80
2019-01-29T22:56:31.211Z,31.73
2019-01-29T22:59:00.327Z,32.77
2019-01-29T23:01:31.376Z,30.47
2019-01-29T23:04:00.754Z,29.97
2019-01-29T23:06:33.228Z,33.73
2019-01-29T23:09:03.219Z,31.37
2019-01-29T23:11:33.964Z,33.17
2019-01-29T23:14:03.059Z,32.60
2019-01-29T23:16:32.160Z,31.20
2019-01-29T23:19:01.280Z,30.07
2019-01-29T23:21:30.376Z,32.13
2019-01-29T23:23:59.486Z,29.80
2019-01-29T23:26:28.667Z,32.20
2019-01-29T23:28:57.859Z,30.53
2019-01-29T23:31:26.958Z,24.77
2019-01-29T23:33:56.075Z,33.67
2019-01-29T23:36:25.191Z,30.97
2019-01-29T23:38:54.302Z,34.23
2019-01-29T23:41:24.480Z,27.63
2019-01-29T23:43:53.588Z,31.90
2019-01-29T23:46:22.694Z,30.57
2019-01-29T23:48:51.838Z,22.90
2019-01-29T23:51:20.938Z,31.30
2019-01-29T23:53:50.063Z,26.67
2019-01-29T23:56:19.159Z,25.03
2019-01-29T23:58:48.290Z,34.47
